createdAt,value
2022-10-29T00:01:33.288Z,15.93
2022-10-29T00:04:06.538Z,15.90
2022-10-29T00:06:39.469Z,15.99
2022-10-29T00:09:12.533Z,15.96
2022-10-29T00:11:45.360Z,15.99
2022-10-29T00:14:18.393Z,15.96
2022-10-29T00:16:52.556Z,15.80
2022-10-29T00:19:26.108Z,15.97
2022-10-29T00:21:58.905Z,15.83
2022-10-29T00:24:31.776Z,15.90
2022-10-29T00:27:04.710Z,16.01
2022-10-29T00:29:37.518Z,15.89
2022-10-29T00:32:11.780Z,15.98
2022-10-29T00:34:44.721Z,16.00
2022-10-29T00:37:17.674Z,15.99
2022-10-29T00:39:50.486Z,16.11
2022-10-29T00:42:23.340Z,16.19
2022-10-29T00:44:56.138Z,16.13
2022-10-29T00:47:33.084Z,16.21
2022-10-29T00:50:09.494Z,16.10
2022-10-29T00:52:45.999Z,16.06
2022-10-29T00:55:22.142Z,15.97
2022-10-29T00:57:57.410Z,15.96
2022-10-29T01:00:30.482Z,15.96
2022-10-29T01:03:04.937Z,15.94
2022-10-29T01:05:38.385Z,15.95
2022-10-29T01:08:11.920Z,15.99
2022-10-29T01:10:56.159Z,16.05
2022-10-29T01:13:49.042Z,15.96
2022-10-29T01:16:33.839Z,15.99
2022-10-29T01:19:15.539Z,16.08
2022-10-29T01:21:53.927Z,16.06
2022-10-29T01:24:56.067Z,16.03
2022-10-29T01:28:07.500Z,15.78
2022-10-29T01:31:06.707Z,16.06
2022-10-29T01:33:47.408Z,16.06
2022-10-29T01:36:29.263Z,16.17
2022-10-29T01:39:08.934Z,16.13
2022-10-29T01:41:50.868Z,16.21
2022-10-29T01:44:34.558Z,16.22
2022-10-29T01:47:15.276Z,16.19
2022-10-29T01:49:52.627Z,16.13
2022-10-29T01:52:29.208Z,16.13
2022-10-29T01:55:03.027Z,16.08
2022-10-29T01:57:38.329Z,16.19
2022-10-29T02:00:14.714Z,16.15
2022-10-29T02:03:02.407Z,16.15
2022-10-29T02:05:40.359Z,16.21
2022-10-29T02:08:22.139Z,16.10
2022-10-29T02:11:00.667Z,16.15
2022-10-29T02:13:41.425Z,16.08
2022-10-29T02:16:15.369Z,16.10
2022-10-29T02:18:50.573Z,16.15
2022-10-29T02:21:23.360Z,16.10
2022-10-29T02:23:56.166Z,16.03
2022-10-29T02:26:28.958Z,16.02
2022-10-29T02:29:02.361Z,16.01
2022-10-29T02:31:36.217Z,15.97
2022-10-29T02:34:10.415Z,15.97
2022-10-29T02:36:43.199Z,15.87
2022-10-29T02:39:15.976Z,16.00
2022-10-29T02:41:49.098Z,16.01
2022-10-29T02:44:21.879Z,15.98
2022-10-29T02:46:54.658Z,16.00
2022-10-29T02:49:29.384Z,15.93
2022-10-29T02:52:02.173Z,15.90
2022-10-29T02:54:35.019Z,15.92
2022-10-29T02:57:08.145Z,15.92
2022-10-29T02:59:41.165Z,15.91
2022-10-29T03:02:14.277Z,15.94
2022-10-29T03:04:48.566Z,15.94
2022-10-29T03:07:21.327Z,15.91
2022-10-29T03:09:54.121Z,15.97
2022-10-29T03:12:26.881Z,16.00
2022-10-29T03:14:59.873Z,15.98
2022-10-29T03:17:32.650Z,16.01
2022-10-29T03:20:08.040Z,15.82
2022-10-29T03:22:40.833Z,15.87
2022-10-29T03:25:13.679Z,15.87
2022-10-29T03:27:47.113Z,15.87
2022-10-29T03:30:20.014Z,15.84
2022-10-29T03:32:53.019Z,15.84
2022-10-29T03:35:27.681Z,15.86
2022-10-29T03:38:00.496Z,15.93
2022-10-29T03:40:33.302Z,15.93
2022-10-29T03:43:06.107Z,15.90
2022-10-29T03:45:38.909Z,15.78
2022-10-29T03:48:11.705Z,15.71
2022-10-29T03:50:46.215Z,15.70
2022-10-29T03:53:19.029Z,15.59
2022-10-29T03:55:52.348Z,15.60
2022-10-29T03:58:26.075Z,15.59
2022-10-29T04:01:02.504Z,15.57
2022-10-29T04:03:36.887Z,15.56
2022-10-29T04:06:13.350Z,15.54
2022-10-29T04:08:46.274Z,15.55
2022-10-29T04:11:19.080Z,15.53
2022-10-29T04:13:53.804Z,15.45
2022-10-29T04:16:26.596Z,15.42
2022-10-29T04:18:59.784Z,15.46
2022-10-29T04:32:46.738Z,15.44
2022-10-29T04:35:19.704Z,15.45
2022-10-29T04:37:55.432Z,15.38
2022-10-29T04:40:28.276Z,15.28
2022-10-29T04:43:01.072Z,15.35
2022-10-29T04:45:33.964Z,15.36
2022-10-29T04:48:07.868Z,15.42
2022-10-29T04:50:40.656Z,15.47
2022-10-29T04:53:14.942Z,15.46
2022-10-29T04:55:48.236Z,15.39
2022-10-29T04:58:21.405Z,15.50
2022-10-29T05:00:54.286Z,15.36
2022-10-29T05:03:27.146Z,15.52
2022-10-29T05:06:00.569Z,15.60
2022-10-29T05:08:34.893Z,15.67
2022-10-29T05:11:08.406Z,15.65
2022-10-29T05:13:41.694Z,15.61
2022-10-29T05:16:14.482Z,15.62
2022-10-29T05:18:47.301Z,15.61
2022-10-29T05:21:20.088Z,15.73
2022-10-29T05:23:54.265Z,15.69
2022-10-29T05:26:27.070Z,15.76
2022-10-29T05:28:59.919Z,15.85
2022-10-29T05:31:32.793Z,15.87
2022-10-29T05:34:05.578Z,15.66
2022-10-29T05:36:38.352Z,15.50
2022-10-29T05:39:12.544Z,15.37
2022-10-29T05:41:46.989Z,15.17
2022-10-29T05:44:19.837Z,14.93
2022-10-29T05:46:58.532Z,14.91
2022-10-29T05:49:31.342Z,14.92
2022-10-29T05:52:04.312Z,14.81
2022-10-29T05:54:38.565Z,14.90
2022-10-29T05:57:11.356Z,14.88
2022-10-29T05:59:44.152Z,14.83
2022-10-29T06:02:17.244Z,14.81
2022-10-29T06:04:50.143Z,14.71
2022-10-29T06:07:22.930Z,14.78
2022-10-29T06:09:57.114Z,14.75
2022-10-29T06:12:34.804Z,14.64
2022-10-29T06:15:09.122Z,14.91
2022-10-29T06:17:42.364Z,14.93
2022-10-29T06:20:17.837Z,15.04
2022-10-29T06:22:58.061Z,15.03
2022-10-29T06:25:32.576Z,15.02
2022-10-29T06:28:06.821Z,15.16
2022-10-29T06:30:39.660Z,15.13
2022-10-29T06:33:12.423Z,15.27
2022-10-29T06:35:45.294Z,15.37
2022-10-29T06:38:18.204Z,15.37
2022-10-29T06:40:54.921Z,15.31
2022-10-29T06:43:27.700Z,15.36
2022-10-29T06:46:00.495Z,15.39
2022-10-29T06:48:33.258Z,15.30
2022-10-29T06:51:06.307Z,15.40
2022-10-29T06:53:39.089Z,15.35
2022-10-29T06:56:13.283Z,15.08
2022-10-29T06:58:46.100Z,15.24
2022-10-29T07:01:18.967Z,15.31
2022-10-29T07:03:51.754Z,15.15
2022-10-29T07:06:24.654Z,15.18
2022-10-29T07:08:57.417Z,15.13
2022-10-29T07:11:31.594Z,15.13
2022-10-29T07:14:05.920Z,15.04
2022-10-29T07:16:38.868Z,15.16
2022-10-29T07:19:11.642Z,15.18
2022-10-29T07:21:44.465Z,15.20
2022-10-29T07:24:17.686Z,15.06
2022-10-29T07:26:51.877Z,15.21
2022-10-29T07:29:24.706Z,15.28
2022-10-29T07:31:57.526Z,15.25
2022-10-29T07:34:30.393Z,15.21
2022-10-29T07:37:03.237Z,15.34
2022-10-29T07:39:36.136Z,15.32
2022-10-29T07:42:10.371Z,15.37
2022-10-29T07:44:44.231Z,15.44
2022-10-29T07:47:17.039Z,15.43
2022-10-29T07:49:51.848Z,15.51
2022-10-29T07:52:24.673Z,15.56
2022-10-29T07:54:57.472Z,15.71
2022-10-29T07:57:31.679Z,15.84
2022-10-29T08:00:04.981Z,15.91
2022-10-29T08:02:37.786Z,15.90
2022-10-29T08:05:10.631Z,15.95
2022-10-29T08:07:44.532Z,15.96
2022-10-29T08:10:17.643Z,15.81
2022-10-29T08:12:52.664Z,15.93
2022-10-29T08:15:26.340Z,16.04
2022-10-29T08:18:00.844Z,16.07
2022-10-29T08:20:33.633Z,16.14
2022-10-29T08:23:06.477Z,16.23
2022-10-29T08:25:41.503Z,16.14
2022-10-29T08:28:17.138Z,16.01
2022-10-29T08:30:51.248Z,16.14
2022-10-29T08:33:24.115Z,16.50
2022-10-29T08:35:56.999Z,16.68
2022-10-29T08:38:29.798Z,16.58
2022-10-29T08:41:21.838Z,16.87
2022-10-29T08:44:10.684Z,16.83
2022-10-29T08:46:48.452Z,16.73
2022-10-29T08:49:27.182Z,17.14
2022-10-29T08:52:06.041Z,16.90
2022-10-29T08:54:43.063Z,17.16
2022-10-29T08:57:18.898Z,17.21
2022-10-29T09:00:04.942Z,17.17
2022-10-29T09:02:40.244Z,17.18
2022-10-29T09:05:17.407Z,16.86
2022-10-29T09:08:06.169Z,17.09
2022-10-29T09:10:44.475Z,17.18
2022-10-29T09:13:30.156Z,17.15
2022-10-29T09:16:26.588Z,17.21
2022-10-29T09:19:20.514Z,17.34
2022-10-29T09:22:01.695Z,17.53
2022-10-29T09:24:41.393Z,17.41
2022-10-29T09:27:21.599Z,17.01
2022-10-29T09:30:07.177Z,17.13
2022-10-29T09:32:43.811Z,17.39
2022-10-29T09:35:19.289Z,17.43
2022-10-29T09:37:57.305Z,17.20
2022-10-29T09:40:34.256Z,17.27
2022-10-29T09:43:14.595Z,17.39
2022-10-29T09:45:53.498Z,17.62
2022-10-29T09:48:35.341Z,17.63
2022-10-29T09:51:19.915Z,17.29
2022-10-29T09:53:53.709Z,17.37
2022-10-29T09:56:26.765Z,17.47
2022-10-29T09:59:08.397Z,17.43
2022-10-29T10:01:41.475Z,17.56
2022-10-29T10:04:23.653Z,17.60
2022-10-29T10:07:06.483Z,17.52
2022-10-29T10:09:54.765Z,17.59
2022-10-29T10:12:29.828Z,17.65
2022-10-29T10:15:18.048Z,17.73
2022-10-29T10:18:02.168Z,17.69
2022-10-29T10:20:44.292Z,17.61
2022-10-29T10:23:21.996Z,17.63
2022-10-29T10:26:00.394Z,17.62
2022-10-29T10:28:38.063Z,17.71
2022-10-29T10:31:15.642Z,17.57
2022-10-29T10:33:53.421Z,17.65
2022-10-29T10:36:30.914Z,17.57
2022-10-29T10:39:04.006Z,17.38
2022-10-29T10:41:37.216Z,17.56
2022-10-29T10:44:14.541Z,17.43
2022-10-29T10:46:48.658Z,17.52
2022-10-29T10:49:32.784Z,17.54
2022-10-29T10:52:15.567Z,17.65
2022-10-29T10:54:57.407Z,17.53
2022-10-29T10:57:36.397Z,17.75
2022-10-29T11:00:18.269Z,17.56
2022-10-29T11:02:57.771Z,17.72
2022-10-29T11:05:35.224Z,17.91
2022-10-29T11:08:15.246Z,18.00
2022-10-29T11:10:53.933Z,18.08
2022-10-29T11:13:31.538Z,18.12
2022-10-29T11:16:13.420Z,18.33
2022-10-29T11:18:53.003Z,18.35
2022-10-29T11:21:34.840Z,18.51
2022-10-29T11:24:18.224Z,18.67
2022-10-29T11:26:56.747Z,18.79
2022-10-29T11:29:39.996Z,18.85
2022-10-29T11:32:19.073Z,18.92
2022-10-29T11:34:59.857Z,18.72
2022-10-29T11:37:39.871Z,18.68
2022-10-29T11:40:19.643Z,18.65
2022-10-29T11:42:52.497Z,18.53
2022-10-29T11:45:40.380Z,18.55
2022-10-29T11:48:21.872Z,18.52
2022-10-29T11:51:02.133Z,18.69
2022-10-29T11:53:59.490Z,18.85
2022-10-29T11:56:48.458Z,18.85
2022-10-29T11:59:34.407Z,18.91
2022-10-29T12:02:27.132Z,19.05
2022-10-29T12:05:05.581Z,19.01
2022-10-29T12:07:56.124Z,19.06
2022-10-29T12:10:40.313Z,19.22
2022-10-29T12:13:30.069Z,19.42
2022-10-29T12:16:19.918Z,19.65
2022-10-29T12:18:59.492Z,19.83
2022-10-29T12:21:42.717Z,19.79
2022-10-29T12:24:33.644Z,20.05
2022-10-29T12:27:14.541Z,20.08
2022-10-29T12:29:54.529Z,20.24
2022-10-29T12:32:33.106Z,20.52
2022-10-29T12:35:16.933Z,20.40
2022-10-29T12:38:06.713Z,21.02
2022-10-29T12:40:44.176Z,21.13
2022-10-29T12:43:24.563Z,20.88
2022-10-29T12:46:25.029Z,20.82
2022-10-29T12:49:07.440Z,20.63
2022-10-29T12:51:49.398Z,20.53
2022-10-29T12:54:38.305Z,20.40
2022-10-29T12:57:29.606Z,20.40
2022-10-29T13:00:39.508Z,20.37
2022-10-29T13:03:13.758Z,20.21
2022-10-29T13:05:46.626Z,20.18
2022-10-29T13:08:28.709Z,20.15
2022-10-29T13:11:01.612Z,20.52
2022-10-29T13:13:57.632Z,20.61
2022-10-29T13:16:32.647Z,20.52
2022-10-29T13:19:16.540Z,20.52
2022-10-29T13:22:03.749Z,20.63
2022-10-29T13:24:36.894Z,20.44
2022-10-29T13:27:36.166Z,20.75
2022-10-29T13:30:19.419Z,20.71
2022-10-29T13:32:52.887Z,20.91
2022-10-29T13:35:43.006Z,21.21
2022-10-29T13:38:19.517Z,21.19
2022-10-29T13:41:15.234Z,20.93
2022-10-29T13:43:55.786Z,20.41
2022-10-29T13:46:38.219Z,20.48
2022-10-29T13:49:17.593Z,20.50
2022-10-29T13:51:56.824Z,20.49
2022-10-29T13:54:40.962Z,20.42
2022-10-29T13:57:22.362Z,20.29
2022-10-29T13:59:59.391Z,20.34
2022-10-29T14:02:45.798Z,20.20
2022-10-29T14:05:22.536Z,20.27
2022-10-29T14:08:02.082Z,20.29
2022-10-29T14:10:43.511Z,20.30
2022-10-29T14:13:29.640Z,20.40
2022-10-29T14:16:04.716Z,20.39
2022-10-29T14:18:40.537Z,20.43
2022-10-29T14:21:16.700Z,20.51
2022-10-29T14:23:58.964Z,20.45
2022-10-29T14:26:33.875Z,20.47
2022-10-29T14:29:19.722Z,20.42
2022-10-29T14:32:06.291Z,20.54
2022-10-29T14:34:40.647Z,20.45
2022-10-29T14:37:18.606Z,20.51
2022-10-29T14:39:58.866Z,20.64
2022-10-29T14:42:34.992Z,20.77
2022-10-29T14:45:17.533Z,20.87
2022-10-29T14:47:53.264Z,20.91
2022-10-29T14:50:28.510Z,20.99
2022-10-29T14:53:04.870Z,21.01
2022-10-29T14:55:42.090Z,20.84
2022-10-29T14:58:21.799Z,20.77
2022-10-29T15:00:57.999Z,20.81
2022-10-29T15:03:33.796Z,21.03
2022-10-29T15:06:16.330Z,21.13
2022-10-29T15:08:57.448Z,21.18
2022-10-29T15:11:37.763Z,21.30
2022-10-29T15:17:15.078Z,21.65
2022-10-29T15:19:49.135Z,21.82
2022-10-29T15:22:27.781Z,21.63
2022-10-29T15:25:03.480Z,21.77
2022-10-29T15:27:38.942Z,21.91
2022-10-29T15:30:20.012Z,21.79
2022-10-29T15:32:59.533Z,21.85
2022-10-29T15:35:32.540Z,21.81
2022-10-29T15:38:05.380Z,21.78
2022-10-29T15:40:38.135Z,21.81
2022-10-29T15:43:30.854Z,21.74
2022-10-29T15:46:05.405Z,21.88
2022-10-29T15:48:38.370Z,21.95
2022-10-29T15:51:11.360Z,22.01
2022-10-29T15:53:44.394Z,21.95
2022-10-29T15:56:17.439Z,21.81
2022-10-29T15:58:52.398Z,21.71
2022-10-29T16:01:25.371Z,21.65
2022-10-29T16:03:58.275Z,21.63
2022-10-29T16:06:31.980Z,21.59
2022-10-29T16:09:05.019Z,21.80
2022-10-29T16:11:37.831Z,21.78
2022-10-29T16:14:12.051Z,21.67
2022-10-29T16:16:45.646Z,21.63
2022-10-29T16:19:18.486Z,21.65
2022-10-29T16:21:51.301Z,21.46
2022-10-29T16:24:24.126Z,21.52
2022-10-29T16:26:57.250Z,21.64
2022-10-29T16:29:31.412Z,21.44
2022-10-29T16:32:04.239Z,21.64
2022-10-29T16:34:37.182Z,21.52
2022-10-29T16:37:13.992Z,21.48
2022-10-29T16:39:46.808Z,21.45
2022-10-29T16:42:31.462Z,21.31
2022-10-29T16:45:07.096Z,21.35
2022-10-29T16:47:39.924Z,21.26
2022-10-29T16:50:17.690Z,21.18
2022-10-29T16:52:57.423Z,21.17
2022-10-29T16:55:31.242Z,21.14
2022-10-29T16:58:04.429Z,21.24
2022-10-29T17:00:38.610Z,21.21
2022-10-29T17:03:13.472Z,21.12
2022-10-29T17:05:47.646Z,21.08
2022-10-29T17:08:20.587Z,20.81
2022-10-29T17:10:58.877Z,20.99
2022-10-29T17:13:31.691Z,21.13
2022-10-29T17:16:09.353Z,21.07
2022-10-29T17:18:42.206Z,21.07
2022-10-29T17:21:15.033Z,20.92
2022-10-29T17:23:47.839Z,21.19
2022-10-29T17:26:20.701Z,21.24
2022-10-29T17:28:53.571Z,21.04
2022-10-29T17:31:27.870Z,21.04
2022-10-29T17:34:00.677Z,21.05
2022-10-29T17:36:33.757Z,20.77
2022-10-29T17:39:06.686Z,20.95
2022-10-29T17:41:40.557Z,20.91
2022-10-29T17:44:13.579Z,20.82
2022-10-29T17:46:47.813Z,20.80
2022-10-29T17:49:20.603Z,20.88
2022-10-29T17:51:53.516Z,21.01
2022-10-29T17:54:27.897Z,20.81
2022-10-29T17:57:00.715Z,20.82
2022-10-29T17:59:33.572Z,20.72
2022-10-29T18:02:08.044Z,20.68
2022-10-29T18:04:40.960Z,20.42
2022-10-29T18:07:13.854Z,20.70
2022-10-29T18:09:46.684Z,20.67
2022-10-29T18:12:19.565Z,20.44
2022-10-29T18:14:52.387Z,20.45
2022-10-29T18:17:26.621Z,20.39
2022-10-29T18:19:59.407Z,20.33
2022-10-29T18:22:32.249Z,20.62
2022-10-29T18:25:05.494Z,20.53
2022-10-29T18:27:39.901Z,20.53
2022-10-29T18:30:13.129Z,20.34
2022-10-29T18:32:47.344Z,20.63
2022-10-29T18:35:20.119Z,20.77
2022-10-29T18:37:53.070Z,20.70
2022-10-29T18:40:25.882Z,20.58
2022-10-29T18:42:58.698Z,20.45
2022-10-29T18:45:31.510Z,20.63
2022-10-29T18:48:06.447Z,20.45
2022-10-29T18:50:39.327Z,20.35
2022-10-29T18:53:12.158Z,20.24
2022-10-29T18:55:50.311Z,20.43
2022-10-29T18:58:23.560Z,20.27
2022-10-29T19:01:05.615Z,20.21
2022-10-29T19:03:40.215Z,20.21
2022-10-29T19:06:14.211Z,20.38
2022-10-29T19:08:47.173Z,20.00
2022-10-29T19:11:22.021Z,20.28
2022-10-29T19:13:56.292Z,20.33
2022-10-29T19:16:30.647Z,20.07
2022-10-29T19:19:07.319Z,20.35
2022-10-29T19:21:43.051Z,20.46
2022-10-29T19:24:16.560Z,20.12
2022-10-29T19:26:49.432Z,20.24
2022-10-29T19:29:22.268Z,20.26
2022-10-29T19:31:55.092Z,20.38
2022-10-29T19:34:29.362Z,20.14
2022-10-29T19:37:02.212Z,19.82
2022-10-29T19:39:35.020Z,20.16
2022-10-29T19:42:07.999Z,20.29
2022-10-29T19:44:40.880Z,19.94
2022-10-29T19:47:13.740Z,19.96
2022-10-29T19:49:47.967Z,20.00
2022-10-29T19:52:21.429Z,19.90
2022-10-29T19:54:54.281Z,19.80
2022-10-29T19:57:27.107Z,19.92
2022-10-29T19:59:59.985Z,20.00
2022-10-29T20:02:32.849Z,19.84
2022-10-29T20:05:08.342Z,19.85
2022-10-29T20:07:41.162Z,19.73
2022-10-29T20:10:14.022Z,19.74
2022-10-29T20:12:46.825Z,19.64
2022-10-29T20:15:19.724Z,19.78
2022-10-29T20:17:52.907Z,19.52
2022-10-29T20:20:27.213Z,19.58
2022-10-29T20:23:00.885Z,19.57
2022-10-29T20:25:34.364Z,19.49
2022-10-29T20:28:07.195Z,19.22
2022-10-29T20:30:40.686Z,18.96
2022-10-29T20:33:13.536Z,19.21
2022-10-29T20:35:47.725Z,19.02
2022-10-29T20:38:20.496Z,19.03
2022-10-29T20:40:53.715Z,18.92
2022-10-29T20:43:26.562Z,18.76
2022-10-29T20:46:02.900Z,18.85
2022-10-29T20:48:36.256Z,18.76
2022-10-29T20:51:11.596Z,18.76
2022-10-29T20:53:44.949Z,18.57
2022-10-29T20:56:19.587Z,18.75
2022-10-29T20:58:52.559Z,18.80
2022-10-29T21:01:26.206Z,18.75
2022-10-29T21:03:59.085Z,18.86
2022-10-29T21:06:35.410Z,18.83
2022-10-29T21:09:08.221Z,18.71
2022-10-29T21:11:42.063Z,18.73
2022-10-29T21:14:14.879Z,18.70
2022-10-29T21:16:47.716Z,18.71
2022-10-29T21:19:20.552Z,18.83
2022-10-29T21:21:55.105Z,18.70
2022-10-29T21:24:27.904Z,18.71
2022-10-29T21:27:00.697Z,18.74
2022-10-29T21:29:33.609Z,18.74
2022-10-29T21:32:07.775Z,18.59
2022-10-29T21:34:42.886Z,18.60
2022-10-29T21:37:17.067Z,18.48
2022-10-29T21:39:49.971Z,18.42
2022-10-29T21:42:22.807Z,18.47
2022-10-29T21:44:55.593Z,18.47
2022-10-29T21:47:28.471Z,18.28
2022-10-29T21:50:01.321Z,18.37
2022-10-29T21:52:35.571Z,18.37
2022-10-29T21:55:09.392Z,18.31
2022-10-29T21:57:44.086Z,18.29
2022-10-29T22:00:18.113Z,17.80
2022-10-29T22:02:51.034Z,18.17
2022-10-29T22:05:23.821Z,17.91
2022-10-29T22:07:58.734Z,18.05
2022-10-29T22:10:31.802Z,17.88
2022-10-29T22:13:04.644Z,18.01
2022-10-29T22:15:37.461Z,17.96
2022-10-29T22:18:10.486Z,17.84
2022-10-29T22:20:43.341Z,17.97
2022-10-29T22:23:17.658Z,17.75
2022-10-29T22:25:51.978Z,17.85
2022-10-29T22:28:24.986Z,17.80
2022-10-29T22:31:01.535Z,17.90
2022-10-29T22:33:35.103Z,17.74
2022-10-29T22:36:10.959Z,17.82
2022-10-29T22:38:45.604Z,17.94
2022-10-29T22:41:18.862Z,17.79
2022-10-29T22:43:51.848Z,17.72
2022-10-29T22:46:24.911Z,17.78
2022-10-29T22:48:58.138Z,17.85
2022-10-29T22:51:33.814Z,17.55
2022-10-29T22:54:08.105Z,17.67
2022-10-29T22:56:41.639Z,17.83
2022-10-29T22:59:14.461Z,17.70
2022-10-29T23:01:48.411Z,17.75
2022-10-29T23:04:22.628Z,17.69
2022-10-29T23:07:00.787Z,17.78
2022-10-29T23:09:36.104Z,17.68
2022-10-29T23:12:08.892Z,17.80
2022-10-29T23:14:41.679Z,17.81
2022-10-29T23:17:20.961Z,17.63
2022-10-29T23:19:56.144Z,17.67
2022-10-29T23:22:28.980Z,17.71
2022-10-29T23:25:03.297Z,17.59
2022-10-29T23:27:36.114Z,17.60
2022-10-29T23:30:10.334Z,17.55
2022-10-29T23:32:43.227Z,17.71
2022-10-29T23:35:16.159Z,17.48
2022-10-29T23:37:48.923Z,17.63
2022-10-29T23:40:24.156Z,17.58
2022-10-29T23:42:56.997Z,17.64
2022-10-29T23:45:29.919Z,17.52
2022-10-29T23:48:02.723Z,17.51
2022-10-29T23:50:35.662Z,17.58
2022-10-29T23:53:09.211Z,17.60
2022-10-29T23:55:45.356Z,17.37
2022-10-29T23:58:18.325Z,17.18
